OL99 weather

Lookout Airport
Homer, Alaska, United States

Public forecast

Using degrees Fahrenheit for public forecast. Weather courtesy of forecast.io.

METAR (pilot weather report)

Closest report is Homer Airport, 3.5 nm (6.5 km) S. Retrieved 2019/09/23 11:53 UTC (32 minutes ago):

PAHO 231153Z AUTO 06008KT 10SM FEW060 06/03 A2931 RMK AO2 SLP925 T00610028 10072 20039 56013 TSNO $

TAF (pilot weather forecast)

Closest forecast is Homer Airport, 3.5 nm (6.5 km) S. Retrieved 2019/09/23 12:24 UTC (1 minute ago):

TAF PAHO 231123Z 2312/2412 05009KT P6SM BKN200 FM232100 33007KT P6SM BKN200 FM241000 14006KT P6SM BKN100 OVC200